createdAt,value
2022-07-29T00:00:21.001Z,19.30
2022-07-29T00:02:48.263Z,17.09
2022-07-29T00:05:15.431Z,15.47
2022-07-29T00:07:42.428Z,19.22
2022-07-29T00:10:09.916Z,17.91
2022-07-29T00:12:37.830Z,19.22
2022-07-29T00:15:05.600Z,18.25
2022-07-29T00:17:32.681Z,14.28
2022-07-29T00:19:59.800Z,16.31
2022-07-29T00:22:26.828Z,19.16
2022-07-29T00:24:53.983Z,17.88
2022-07-29T00:27:38.874Z,19.25
2022-07-29T00:30:06.901Z,18.56
2022-07-29T00:32:34.178Z,17.23
2022-07-29T00:35:20.553Z,12.83
2022-07-29T00:37:47.653Z,17.03
2022-07-29T00:40:14.970Z,18.57
2022-07-29T00:42:51.653Z,15.96
2022-07-29T00:45:19.308Z,17.87
2022-07-29T00:47:46.716Z,13.60
2022-07-29T00:50:15.864Z,19.19
2022-07-29T00:52:44.086Z,19.20
2022-07-29T00:55:13.726Z,19.21
2022-07-29T00:57:42.848Z,13.20
2022-07-29T01:00:14.928Z,16.00
2022-07-29T01:02:42.739Z,19.10
2022-07-29T01:05:11.162Z,16.95
2022-07-29T01:07:40.300Z,17.10
2022-07-29T01:10:09.565Z,18.97
2022-07-29T01:12:38.355Z,19.03
2022-07-29T01:15:07.750Z,19.08
2022-07-29T01:17:52.435Z,19.12
2022-07-29T01:21:06.352Z,19.11
2022-07-29T01:24:12.933Z,19.08
2022-07-29T01:26:50.500Z,18.22
2022-07-29T01:29:38.681Z,18.39
2022-07-29T01:32:27.343Z,17.89
2022-07-29T01:35:18.878Z,18.96
2022-07-29T01:38:15.014Z,18.95
2022-07-29T01:40:54.851Z,18.90
2022-07-29T01:43:43.429Z,18.89
2022-07-29T01:46:15.865Z,15.47
2022-07-29T01:48:46.517Z,17.74
2022-07-29T01:51:30.568Z,18.77
2022-07-29T01:54:09.977Z,18.07
2022-07-29T01:56:37.850Z,18.01
2022-07-29T01:59:06.103Z,18.76
2022-07-29T02:01:34.342Z,18.73
2022-07-29T02:04:04.622Z,18.68
2022-07-29T02:06:34.090Z,18.64
2022-07-29T02:09:01.572Z,18.59
2022-07-29T02:11:28.884Z,17.90
2022-07-29T02:13:58.025Z,16.40
2022-07-29T02:16:26.441Z,18.14
2022-07-29T02:18:54.828Z,17.38
2022-07-29T02:21:26.033Z,17.18
2022-07-29T02:23:56.363Z,18.33
2022-07-29T02:26:24.682Z,17.38
2022-07-29T02:28:53.675Z,18.17
2022-07-29T02:31:23.188Z,16.91
2022-07-29T02:33:51.467Z,15.61
2022-07-29T02:36:18.923Z,16.84
2022-07-29T02:38:54.347Z,17.96
2022-07-29T02:41:27.847Z,17.79
2022-07-29T02:44:03.337Z,13.97
2022-07-29T02:46:32.887Z,13.75
2022-07-29T02:49:23.870Z,18.02
2022-07-29T02:51:59.493Z,17.79
2022-07-29T02:54:43.607Z,17.94
2022-07-29T02:57:22.549Z,15.00
2022-07-29T02:59:51.637Z,14.79
2022-07-29T03:02:18.875Z,17.33
2022-07-29T03:04:46.915Z,17.83
2022-07-29T03:07:15.680Z,16.43
2022-07-29T03:09:43.926Z,16.55
2022-07-29T03:12:11.664Z,16.38
2022-07-29T03:14:39.390Z,17.13
2022-07-29T03:17:06.506Z,17.68
2022-07-29T03:19:33.762Z,17.56
2022-07-29T03:22:02.453Z,17.39
2022-07-29T03:24:36.976Z,17.17
2022-07-29T03:27:05.267Z,17.28
2022-07-29T03:29:33.661Z,14.25
2022-07-29T03:32:07.910Z,16.85
2022-07-29T03:34:36.955Z,17.44
2022-07-29T03:37:03.821Z,17.07
2022-07-29T03:39:35.617Z,17.20
2022-07-29T03:42:03.451Z,17.70
2022-07-29T03:44:32.008Z,16.14
2022-07-29T03:47:00.870Z,17.06
2022-07-29T03:49:28.759Z,15.40
2022-07-29T03:51:55.968Z,14.03
2022-07-29T03:54:23.604Z,17.86
2022-07-29T03:56:53.090Z,14.05
2022-07-29T03:59:21.386Z,17.34
2022-07-29T04:01:49.133Z,16.55
2022-07-29T04:04:17.413Z,16.95
2022-07-29T04:06:48.267Z,12.61
2022-07-29T04:09:15.837Z,17.82
2022-07-29T04:11:57.061Z,14.26
2022-07-29T04:14:33.778Z,14.66
2022-07-29T04:17:02.056Z,17.34
2022-07-29T04:19:29.289Z,17.80
2022-07-29T04:21:56.731Z,17.35
2022-07-29T04:24:23.962Z,15.82
2022-07-29T04:26:51.090Z,16.11
2022-07-29T04:29:18.187Z,15.63
2022-07-29T04:31:45.914Z,16.96
2022-07-29T04:34:13.459Z,18.05
2022-07-29T04:36:40.866Z,16.16
2022-07-29T04:39:08.720Z,16.98
2022-07-29T04:41:35.823Z,18.23
2022-07-29T04:44:06.850Z,17.89
2022-07-29T04:46:35.994Z,16.27
2022-07-29T04:49:04.053Z,15.14
2022-07-29T04:51:31.517Z,18.16
2022-07-29T04:54:00.174Z,16.21
2022-07-29T04:56:28.520Z,18.35
2022-07-29T04:58:55.731Z,16.04
2022-07-29T05:01:22.912Z,16.96
2022-07-29T05:03:49.971Z,17.83
2022-07-29T05:06:17.139Z,18.79
2022-07-29T05:08:44.081Z,15.67
2022-07-29T05:11:12.974Z,16.53
2022-07-29T05:13:45.769Z,17.93
2022-07-29T05:16:14.923Z,18.09
2022-07-29T05:18:43.209Z,18.41
2022-07-29T05:21:11.069Z,17.40
2022-07-29T05:23:38.915Z,19.20
2022-07-29T05:26:05.928Z,19.31
2022-07-29T05:28:36.306Z,18.28
2022-07-29T05:31:03.497Z,18.29
2022-07-29T05:33:36.158Z,19.50
2022-07-29T05:36:08.005Z,17.04
2022-07-29T05:38:36.603Z,19.36
2022-07-29T05:41:04.417Z,20.02
2022-07-29T05:43:32.856Z,20.14
2022-07-29T05:46:00.268Z,17.70
2022-07-29T05:48:27.698Z,19.53
2022-07-29T05:50:56.058Z,18.31
2022-07-29T05:53:23.425Z,20.26
2022-07-29T05:55:50.762Z,17.44
2022-07-29T05:58:24.167Z,19.22
2022-07-29T06:00:51.958Z,18.07
2022-07-29T06:03:18.979Z,20.10
2022-07-29T06:05:48.345Z,18.32
2022-07-29T06:08:15.445Z,17.70
2022-07-29T06:10:42.865Z,20.58
2022-07-29T06:13:10.976Z,20.25
2022-07-29T06:15:38.254Z,19.03
2022-07-29T06:18:08.637Z,16.29
2022-07-29T06:20:36.194Z,17.64
2022-07-29T06:23:05.489Z,19.97
2022-07-29T06:25:35.911Z,18.42
2022-07-29T06:28:03.038Z,17.02
2022-07-29T06:30:30.502Z,20.87
2022-07-29T06:33:05.903Z,17.64
2022-07-29T06:35:38.468Z,19.76
2022-07-29T06:38:25.631Z,20.55
2022-07-29T06:41:07.113Z,20.36
2022-07-29T06:43:42.692Z,13.86
2022-07-29T06:46:21.274Z,20.00
2022-07-29T06:48:49.256Z,18.47
2022-07-29T06:51:22.119Z,18.53
2022-07-29T06:54:00.262Z,18.13
2022-07-29T06:56:38.376Z,18.61
2022-07-29T06:59:09.225Z,18.31
2022-07-29T07:01:41.759Z,18.28
2022-07-29T07:04:10.085Z,17.09
2022-07-29T07:06:38.032Z,19.61
2022-07-29T07:09:06.467Z,13.74
2022-07-29T07:11:34.103Z,15.64
2022-07-29T07:14:03.854Z,13.18
2022-07-29T07:16:32.859Z,17.76
2022-07-29T07:19:00.771Z,19.15
2022-07-29T07:21:30.687Z,17.50
2022-07-29T07:23:59.424Z,16.73
2022-07-29T07:26:26.863Z,16.41
2022-07-29T07:28:54.295Z,17.11
2022-07-29T07:31:21.483Z,15.82
2022-07-29T07:33:49.954Z,19.34
2022-07-29T07:36:17.225Z,20.45
2022-07-29T07:38:44.602Z,18.23
2022-07-29T07:41:12.060Z,20.16
2022-07-29T07:43:41.907Z,18.96
2022-07-29T07:46:09.231Z,18.50
2022-07-29T07:48:37.342Z,19.11
2022-07-29T07:51:04.757Z,19.98
2022-07-29T07:53:31.787Z,18.96
2022-07-29T07:56:10.474Z,18.57
2022-07-29T07:58:38.576Z,18.45
2022-07-29T08:01:08.607Z,19.72
2022-07-29T08:03:36.172Z,18.02
2022-07-29T08:06:04.287Z,19.33
2022-07-29T08:08:32.012Z,19.12
2022-07-29T08:11:02.206Z,19.27
2022-07-29T08:13:33.981Z,17.09
2022-07-29T08:16:12.707Z,18.86
2022-07-29T08:18:42.218Z,18.14
2022-07-29T08:21:09.430Z,16.19
2022-07-29T08:23:47.128Z,14.66
2022-07-29T08:26:16.254Z,18.83
2022-07-29T08:28:49.809Z,19.21
2022-07-29T08:31:18.082Z,20.22
2022-07-29T08:33:45.329Z,18.29
2022-07-29T08:36:14.184Z,17.90
2022-07-29T08:38:41.316Z,18.25
2022-07-29T08:41:08.419Z,17.70
2022-07-29T08:43:38.682Z,20.27
2022-07-29T08:46:06.947Z,17.40
2022-07-29T08:48:34.445Z,19.52
2022-07-29T08:51:02.501Z,18.63
2022-07-29T08:53:31.683Z,20.31
2022-07-29T08:55:59.072Z,19.51
2022-07-29T08:58:27.551Z,19.98
2022-07-29T09:00:58.116Z,21.66
2022-07-29T09:03:31.119Z,19.66
2022-07-29T09:06:00.498Z,19.02
2022-07-29T09:08:27.567Z,21.99
2022-07-29T09:10:57.246Z,21.99
2022-07-29T09:13:24.222Z,20.22
2022-07-29T09:15:51.395Z,21.98
2022-07-29T09:18:38.995Z,21.92
2022-07-29T09:21:26.891Z,20.84
2022-07-29T09:24:14.017Z,21.06
2022-07-29T09:26:42.795Z,21.34
2022-07-29T09:29:21.357Z,22.08
2022-07-29T09:31:50.052Z,20.77
2022-07-29T09:34:28.100Z,22.93
2022-07-29T09:36:56.561Z,22.61
2022-07-29T09:39:46.785Z,22.51
2022-07-29T09:42:16.025Z,22.30
2022-07-29T09:44:44.020Z,25.37
2022-07-29T09:47:13.166Z,23.06
2022-07-29T09:49:59.241Z,25.46
2022-07-29T09:52:32.573Z,25.53
2022-07-29T09:55:18.220Z,22.97
2022-07-29T09:57:47.446Z,23.42
2022-07-29T10:00:18.673Z,24.71
2022-07-29T10:02:47.133Z,24.78
2022-07-29T10:05:25.130Z,23.90
2022-07-29T10:07:57.786Z,23.95
2022-07-29T10:10:27.413Z,25.86
2022-07-29T10:13:04.542Z,25.80
2022-07-29T10:15:39.494Z,24.03
2022-07-29T10:18:07.835Z,22.59
2022-07-29T10:20:35.578Z,25.68
2022-07-29T10:23:04.051Z,25.83
2022-07-29T10:25:31.858Z,23.94
2022-07-29T10:27:59.815Z,24.17
2022-07-29T10:30:27.606Z,23.54
2022-07-29T10:33:19.548Z,26.50
2022-07-29T10:36:09.355Z,26.88
2022-07-29T10:39:07.313Z,25.36
2022-07-29T10:41:53.969Z,26.03
2022-07-29T10:44:26.412Z,26.65
2022-07-29T10:46:55.158Z,27.31
2022-07-29T10:49:27.934Z,25.98
2022-07-29T10:52:10.468Z,26.28
2022-07-29T10:54:53.625Z,26.93
2022-07-29T10:57:52.634Z,26.64
2022-07-29T11:00:14.177Z,27.92
2022-07-29T11:02:47.254Z,24.24
2022-07-29T11:05:22.220Z,27.41
2022-07-29T11:08:20.350Z,27.02
2022-07-29T11:11:35.059Z,26.70
2022-07-29T11:14:04.794Z,26.79
2022-07-29T11:17:06.435Z,26.74
2022-07-29T11:19:35.859Z,24.65
2022-07-29T11:22:03.286Z,24.24
2022-07-29T11:24:35.736Z,25.16
2022-07-29T11:27:21.968Z,24.27
2022-07-29T11:29:52.081Z,27.17
2022-07-29T11:32:23.308Z,27.08
2022-07-29T11:35:38.280Z,25.59
2022-07-29T11:38:31.809Z,26.91
2022-07-29T11:41:19.028Z,26.69
2022-07-29T11:43:54.861Z,24.32
2022-07-29T11:46:49.890Z,26.90
2022-07-29T11:52:15.333Z,26.45
2022-07-29T11:54:57.216Z,26.87
2022-07-29T12:00:46.655Z,24.70
2022-07-29T12:03:33.397Z,26.73
2022-07-29T12:06:13.351Z,26.56
2022-07-29T12:07:03.951Z,26.12
2022-07-29T12:08:44.623Z,24.54
2022-07-29T12:11:23.084Z,26.62
2022-07-29T12:13:52.275Z,27.10
2022-07-29T12:16:25.088Z,25.98
2022-07-29T12:19:02.407Z,26.90
2022-07-29T12:21:56.260Z,24.92
2022-07-29T12:24:26.789Z,26.93
2022-07-29T12:26:59.828Z,27.26
2022-07-29T12:29:35.075Z,26.55
2022-07-29T12:32:04.799Z,27.79
2022-07-29T12:34:33.085Z,24.10
2022-07-29T12:37:00.583Z,26.04
2022-07-29T12:39:29.048Z,25.08
2022-07-29T12:42:04.091Z,23.94
2022-07-29T12:44:51.492Z,27.79
2022-07-29T12:47:19.911Z,25.02
2022-07-29T12:49:48.028Z,26.83
2022-07-29T12:52:44.978Z,27.79
2022-07-29T12:55:12.799Z,28.30
2022-07-29T12:57:51.982Z,25.83
2022-07-29T13:00:30.413Z,26.94
2022-07-29T13:03:23.605Z,26.45
2022-07-29T13:05:52.394Z,26.09
2022-07-29T13:08:22.307Z,25.33
2022-07-29T13:10:50.227Z,26.29
2022-07-29T13:13:17.418Z,27.10
2022-07-29T13:15:47.919Z,27.61
2022-07-29T13:18:47.415Z,27.95
2022-07-29T13:21:19.330Z,27.77
2022-07-29T13:23:46.945Z,26.60
2022-07-29T13:26:15.189Z,25.80
2022-07-29T13:28:44.184Z,28.18
2022-07-29T13:31:14.286Z,26.03
2022-07-29T13:33:44.944Z,27.51
2022-07-29T13:36:11.948Z,24.58
2022-07-29T13:38:39.066Z,27.91
2022-07-29T13:41:07.084Z,26.91
2022-07-29T13:43:34.175Z,26.54
2022-07-29T13:46:01.588Z,27.20
2022-07-29T13:48:28.797Z,24.83
2022-07-29T13:50:55.839Z,23.66
2022-07-29T13:53:26.979Z,25.68
2022-07-29T13:55:56.182Z,26.35
2022-07-29T13:58:23.269Z,27.10
2022-07-29T14:00:50.932Z,26.65
2022-07-29T14:03:18.097Z,24.96
2022-07-29T14:05:45.304Z,27.64
2022-07-29T14:08:12.433Z,25.28
2022-07-29T14:10:39.475Z,24.52
2022-07-29T14:13:06.480Z,26.44
2022-07-29T14:15:51.731Z,25.74
2022-07-29T14:18:18.911Z,27.11
2022-07-29T14:20:46.011Z,25.85
2022-07-29T14:23:13.075Z,27.06
2022-07-29T14:25:43.522Z,24.51
2022-07-29T14:28:11.626Z,26.54
2022-07-29T14:30:43.719Z,24.21
2022-07-29T14:33:11.522Z,26.42
2022-07-29T14:35:38.655Z,25.19
2022-07-29T14:38:07.135Z,23.91
2022-07-29T14:40:34.278Z,25.89
2022-07-29T14:43:01.286Z,26.42
2022-07-29T14:45:29.330Z,26.98
2022-07-29T14:47:57.520Z,24.68
2022-07-29T14:50:31.471Z,25.36
2022-07-29T14:53:02.657Z,25.61
2022-07-29T14:55:30.079Z,27.25
2022-07-29T14:58:07.720Z,25.86
2022-07-29T15:00:37.943Z,26.11
2022-07-29T15:03:06.352Z,27.31
2022-07-29T15:05:33.714Z,26.83
2022-07-29T15:08:00.969Z,26.88
2022-07-29T15:10:29.001Z,24.28
2022-07-29T15:12:57.261Z,24.57
2022-07-29T15:15:27.162Z,23.28
2022-07-29T15:17:56.515Z,25.44
2022-07-29T15:20:27.120Z,22.46
2022-07-29T15:22:56.513Z,26.52
2022-07-29T15:25:24.352Z,25.10
2022-07-29T15:27:53.984Z,22.96
2022-07-29T15:30:33.466Z,24.88
2022-07-29T15:33:03.282Z,26.06
2022-07-29T15:35:30.391Z,24.14
2022-07-29T15:37:58.081Z,26.58
2022-07-29T15:40:25.108Z,26.55
2022-07-29T15:42:52.328Z,23.74
2022-07-29T15:45:19.394Z,26.40
2022-07-29T15:47:47.222Z,26.40
2022-07-29T15:50:17.040Z,25.66
2022-07-29T15:52:44.106Z,25.36
2022-07-29T15:55:14.209Z,22.91
2022-07-29T15:57:41.090Z,23.80
2022-07-29T16:00:08.822Z,25.94
2022-07-29T16:02:36.081Z,24.62
2022-07-29T16:05:03.135Z,25.96
2022-07-29T16:07:31.461Z,22.44
2022-07-29T16:10:01.183Z,23.13
2022-07-29T16:12:28.127Z,23.09
2022-07-29T16:14:55.243Z,22.81
2022-07-29T16:17:23.782Z,22.42
2022-07-29T16:19:50.749Z,23.06
2022-07-29T16:22:17.801Z,24.00
2022-07-29T16:24:44.808Z,25.52
2022-07-29T16:27:11.941Z,24.70
2022-07-29T16:29:39.656Z,24.88
2022-07-29T16:32:07.039Z,21.45
2022-07-29T16:34:34.295Z,24.64
2022-07-29T16:37:01.639Z,25.43
2022-07-29T16:39:29.039Z,24.38
2022-07-29T16:42:00.290Z,24.30
2022-07-29T16:44:29.146Z,25.32
2022-07-29T16:46:58.022Z,25.41
2022-07-29T16:49:27.351Z,25.56
2022-07-29T16:51:54.687Z,25.54
2022-07-29T16:54:21.649Z,25.56
2022-07-29T16:56:48.627Z,25.56
2022-07-29T16:59:15.673Z,25.21
2022-07-29T17:01:42.924Z,25.76
2022-07-29T17:04:12.098Z,25.73
2022-07-29T17:06:40.760Z,25.28
2022-07-29T17:09:09.511Z,25.94
2022-07-29T17:11:53.765Z,25.88
2022-07-29T17:14:25.378Z,23.35
2022-07-29T17:17:03.217Z,22.91
2022-07-29T17:19:33.820Z,22.75
2022-07-29T17:22:11.778Z,24.17
2022-07-29T17:24:41.918Z,24.29
2022-07-29T17:27:10.350Z,23.78
2022-07-29T17:29:39.077Z,25.36
2022-07-29T17:32:07.658Z,25.00
2022-07-29T17:34:40.252Z,25.38
2022-07-29T17:37:09.544Z,24.96
2022-07-29T17:39:41.303Z,25.45
2022-07-29T17:42:10.083Z,21.98
2022-07-29T17:44:37.611Z,23.52
2022-07-29T17:47:16.507Z,25.01
2022-07-29T17:49:45.655Z,24.74
2022-07-29T17:52:13.845Z,24.55
2022-07-29T17:54:41.002Z,22.15
2022-07-29T17:57:08.235Z,23.04
2022-07-29T17:59:45.977Z,25.06
2022-07-29T18:02:14.471Z,23.01
2022-07-29T18:04:41.552Z,22.99
2022-07-29T18:07:10.601Z,22.57
2022-07-29T18:09:37.748Z,23.76
2022-07-29T18:12:05.795Z,19.05
2022-07-29T18:14:33.736Z,21.24
2022-07-29T18:17:01.237Z,23.96
2022-07-29T18:19:29.749Z,23.83
2022-07-29T18:21:59.321Z,23.10
2022-07-29T18:24:32.122Z,24.26
2022-07-29T18:26:59.604Z,23.00
2022-07-29T18:29:29.018Z,19.51
2022-07-29T18:31:56.567Z,22.89
2022-07-29T18:34:27.239Z,23.24
2022-07-29T18:36:54.571Z,22.82
2022-07-29T18:39:21.628Z,22.47
2022-07-29T18:41:51.519Z,22.74
2022-07-29T18:44:22.652Z,21.65
2022-07-29T18:46:51.406Z,21.53
2022-07-29T18:49:19.116Z,22.35
2022-07-29T18:51:46.259Z,21.76
2022-07-29T18:54:13.281Z,23.25
2022-07-29T18:56:40.469Z,20.31
2022-07-29T18:59:07.438Z,22.21
2022-07-29T19:01:34.590Z,21.81
2022-07-29T19:04:01.887Z,21.55
2022-07-29T19:06:29.161Z,22.08
2022-07-29T19:08:58.609Z,21.56
2022-07-29T19:11:25.884Z,22.54
2022-07-29T19:13:52.824Z,21.45
2022-07-29T19:16:19.803Z,20.60
2022-07-29T19:18:47.474Z,18.96
2022-07-29T19:21:19.695Z,20.08
2022-07-29T19:24:05.964Z,19.61
2022-07-29T19:26:42.866Z,19.84
2022-07-29T19:29:11.417Z,18.79
2022-07-29T19:31:40.765Z,21.87
2022-07-29T19:34:10.628Z,21.81
2022-07-29T19:36:38.807Z,18.26
2022-07-29T19:39:05.950Z,21.60
2022-07-29T19:41:39.750Z,20.81
2022-07-29T19:44:06.910Z,20.16
2022-07-29T19:46:35.214Z,20.11
2022-07-29T19:49:07.122Z,20.48
2022-07-29T19:51:34.880Z,21.24
2022-07-29T19:54:20.829Z,19.86
2022-07-29T19:56:48.509Z,18.46
2022-07-29T19:59:16.808Z,17.98
2022-07-29T20:01:44.415Z,21.11
2022-07-29T20:04:14.206Z,20.70
2022-07-29T20:06:45.350Z,21.07
2022-07-29T20:09:16.761Z,18.92
2022-07-29T20:11:48.263Z,15.93
2022-07-29T20:14:15.897Z,16.98
2022-07-29T20:16:43.366Z,18.59
2022-07-29T20:19:13.744Z,19.39
2022-07-29T20:21:41.340Z,20.39
2022-07-29T20:24:11.761Z,17.99
2022-07-29T20:26:39.356Z,20.62
2022-07-29T20:29:07.307Z,20.59
2022-07-29T20:31:35.528Z,18.23
2022-07-29T20:34:05.648Z,16.14
2022-07-29T20:36:35.177Z,15.49
2022-07-29T20:39:02.242Z,17.27
2022-07-29T20:41:29.335Z,15.92
2022-07-29T20:43:56.476Z,15.20
2022-07-29T20:46:23.857Z,16.42
2022-07-29T20:48:50.996Z,17.50
2022-07-29T20:51:20.524Z,17.14
2022-07-29T20:53:50.535Z,20.22
2022-07-29T20:56:17.794Z,19.13
2022-07-29T20:58:46.175Z,20.20
2022-07-29T21:01:13.313Z,14.30
2022-07-29T21:03:40.457Z,20.23
2022-07-29T21:06:09.175Z,18.88
2022-07-29T21:08:36.256Z,18.97
2022-07-29T21:11:03.706Z,20.30
2022-07-29T21:13:31.041Z,16.38
2022-07-29T21:16:02.013Z,19.12
2022-07-29T21:18:32.459Z,19.72
2022-07-29T21:21:04.554Z,20.36
2022-07-29T21:23:31.665Z,20.38
2022-07-29T21:25:58.602Z,19.52
2022-07-29T21:28:41.369Z,19.67
2022-07-29T21:31:13.947Z,20.38
2022-07-29T21:33:43.303Z,19.26
2022-07-29T21:36:42.809Z,19.73
2022-07-29T21:38:57.382Z,20.17
2022-07-29T21:41:24.208Z,19.92
2022-07-29T21:43:52.075Z,19.84
2022-07-29T21:46:22.217Z,18.98
2022-07-29T21:48:51.638Z,20.36
2022-07-29T21:51:18.476Z,19.41
2022-07-29T21:53:45.318Z,20.27
2022-07-29T21:56:14.950Z,19.57
2022-07-29T21:58:41.963Z,19.89
2022-07-29T22:01:11.111Z,20.02
2022-07-29T22:03:40.871Z,20.19
2022-07-29T22:06:17.836Z,20.16
2022-07-29T22:08:45.668Z,19.93
2022-07-29T22:11:12.977Z,19.82
2022-07-29T22:13:39.863Z,20.22
2022-07-29T22:32:01.587Z,19.97
2022-07-29T22:34:49.211Z,19.93
2022-07-29T22:37:36.832Z,19.20
2022-07-29T22:40:24.149Z,18.88
2022-07-29T22:43:18.099Z,19.64
2022-07-29T22:46:05.525Z,18.65
2022-07-29T22:48:52.875Z,19.32
2022-07-29T22:51:40.130Z,18.55
2022-07-29T22:54:27.504Z,19.06
2022-07-29T22:57:14.802Z,18.91
2022-07-29T23:00:02.486Z,18.25
2022-07-29T23:02:49.887Z,18.52
2022-07-29T23:05:37.049Z,17.07
2022-07-29T23:08:24.218Z,18.35
2022-07-29T23:11:11.705Z,18.52
2022-07-29T23:13:58.963Z,18.40
2022-07-29T23:16:46.466Z,17.92
2022-07-29T23:19:33.811Z,18.13
2022-07-29T23:22:21.010Z,17.66
2022-07-29T23:25:08.665Z,16.50
2022-07-29T23:27:55.883Z,17.74
2022-07-29T23:30:43.402Z,17.92
2022-07-29T23:33:31.709Z,18.15
2022-07-29T23:36:21.099Z,13.84
2022-07-29T23:39:13.536Z,16.11
2022-07-29T23:42:01.973Z,17.94
2022-07-29T23:44:50.152Z,17.41
2022-07-29T23:47:37.841Z,15.58
2022-07-29T23:50:25.852Z,17.81
2022-07-29T23:53:14.693Z,17.61
2022-07-29T23:56:03.210Z,14.51
2022-07-29T23:58:50.997Z,16.47
